createdAt,value
2019-03-18T00:01:07.113Z,0.93
2019-03-18T00:03:35.562Z,0.70
2019-03-18T00:06:23.365Z,1.33
2019-03-18T00:09:11.130Z,1.10
2019-03-18T00:14:13.278Z,0.70
2019-03-18T00:16:41.701Z,0.80
2019-03-18T00:19:10.181Z,1.23
2019-03-18T00:21:38.629Z,0.80
2019-03-18T00:24:07.077Z,0.70
2019-03-18T00:29:09.153Z,1.00
2019-03-18T00:31:37.664Z,0.70
2019-03-18T00:34:06.114Z,1.33
2019-03-18T00:36:34.567Z,0.70
2019-03-18T00:41:37.452Z,0.80
2019-03-18T00:46:40.313Z,0.97
2019-03-18T00:49:08.761Z,1.17
2019-03-18T00:51:37.236Z,0.70
2019-03-18T00:54:05.684Z,0.90
2019-03-18T00:56:34.141Z,1.27
2019-03-18T00:59:02.661Z,0.80
2019-03-18T01:01:31.193Z,0.90
2019-03-18T01:03:59.657Z,1.03
2019-03-18T01:06:47.433Z,0.90
2019-03-18T01:09:15.882Z,1.00
2019-03-18T01:11:44.329Z,1.23
2019-03-18T01:14:12.837Z,1.30
2019-03-18T01:16:41.291Z,0.70
2019-03-18T01:19:09.741Z,0.80
2019-03-18T01:21:38.233Z,1.13
2019-03-18T01:24:06.689Z,0.80
2019-03-18T01:26:35.135Z,1.50
2019-03-18T01:29:03.659Z,1.23
2019-03-18T01:31:32.064Z,1.13
2019-03-18T01:34:00.513Z,3.33
2019-03-18T01:36:29.000Z,1.30
2019-03-18T01:38:57.461Z,1.40
2019-03-18T01:41:25.897Z,1.50
2019-03-18T01:46:28.233Z,1.70
2019-03-18T01:51:31.272Z,1.17
2019-03-18T01:56:34.178Z,1.37
2019-03-18T01:59:02.640Z,1.23
2019-03-18T02:04:05.026Z,1.50
2019-03-18T02:06:33.583Z,1.50
2019-03-18T02:11:36.486Z,1.00
2019-03-18T02:14:05.054Z,1.37
2019-03-18T02:16:33.507Z,1.03
2019-03-18T02:19:21.300Z,1.57
2019-03-18T02:21:49.745Z,2.10
2019-03-18T02:24:18.234Z,1.13
2019-03-18T02:27:06.114Z,1.80
2019-03-18T02:29:34.559Z,1.10
2019-03-18T02:32:03.070Z,1.30
2019-03-18T02:34:31.582Z,1.27
2019-03-18T02:37:19.269Z,1.43
2019-03-18T02:42:28.424Z,1.60
2019-03-18T02:44:56.871Z,1.33
2019-03-18T02:47:25.313Z,1.07
2019-03-18T02:52:27.423Z,1.90
2019-03-18T02:54:55.938Z,1.73
2019-03-18T02:57:43.864Z,1.90
2019-03-18T03:00:52.226Z,2.00
2019-03-18T03:03:20.775Z,1.60
2019-03-18T03:05:49.239Z,1.03
2019-03-18T03:08:17.684Z,2.10
2019-03-18T03:10:46.526Z,2.17
2019-03-18T03:13:14.995Z,2.00
2019-03-18T03:15:43.535Z,1.70
2019-03-18T03:18:12.160Z,1.53
2019-03-18T03:20:40.676Z,2.33
2019-03-18T03:23:09.187Z,2.07
2019-03-18T03:25:37.674Z,1.67
2019-03-18T03:28:06.136Z,1.60
2019-03-18T03:30:34.610Z,2.47
2019-03-18T03:33:03.259Z,2.37
2019-03-18T03:35:31.710Z,2.17
2019-03-18T03:38:00.157Z,1.70
2019-03-18T03:40:28.642Z,1.97
2019-03-18T03:42:57.110Z,1.73
2019-03-18T03:45:25.574Z,2.17
2019-03-18T03:47:54.048Z,2.17
2019-03-18T03:50:22.515Z,1.63
2019-03-18T03:52:51.036Z,2.07
2019-03-18T03:58:13.004Z,2.40
2019-03-18T04:00:41.574Z,2.17
2019-03-18T04:06:37.488Z,2.60
2019-03-18T04:09:45.857Z,2.30
2019-03-18T04:12:33.533Z,2.30
2019-03-18T04:15:02.002Z,2.60
2019-03-18T04:17:30.435Z,2.37
2019-03-18T04:19:59.025Z,3.10
2019-03-18T04:22:27.438Z,2.23
2019-03-18T04:24:55.890Z,1.93
2019-03-18T04:27:24.984Z,1.87
2019-03-18T04:30:13.760Z,1.70
2019-03-18T04:33:01.506Z,1.73
2019-03-18T04:35:29.956Z,1.57
2019-03-18T04:37:58.406Z,1.77
2019-03-18T04:40:26.893Z,2.17
2019-03-18T04:42:55.344Z,1.97
2019-03-18T04:45:23.793Z,2.13
2019-03-18T04:47:52.310Z,2.40
2019-03-18T04:50:39.891Z,2.13
2019-03-18T04:53:08.398Z,1.73
2019-03-18T04:55:36.845Z,1.73
2019-03-18T04:58:05.297Z,2.43
2019-03-18T05:03:07.518Z,2.00
2019-03-18T05:05:35.965Z,1.80
2019-03-18T05:10:39.014Z,2.40
2019-03-18T05:15:40.985Z,1.63
2019-03-18T05:18:09.438Z,1.70
2019-03-18T05:23:11.668Z,1.97
2019-03-18T05:25:40.117Z,1.47
2019-03-18T05:28:08.601Z,2.00
2019-03-18T05:30:37.052Z,1.70
2019-03-18T05:33:05.502Z,1.37
2019-03-18T05:35:53.244Z,1.33
2019-03-18T05:38:21.684Z,1.60
2019-03-18T05:40:50.133Z,1.10
2019-03-18T05:43:18.621Z,1.10
2019-03-18T05:45:47.089Z,1.30
2019-03-18T05:48:15.541Z,1.10
2019-03-18T05:53:18.325Z,0.90
2019-03-18T05:56:06.123Z,1.33
2019-03-18T05:58:34.569Z,1.37
2019-03-18T06:01:03.032Z,1.53
2019-03-18T06:03:31.509Z,0.70
2019-03-18T06:05:59.957Z,1.10
2019-03-18T06:08:28.410Z,1.07
2019-03-18T06:10:56.896Z,0.77
2019-03-18T06:13:25.348Z,1.00
2019-03-18T06:15:53.798Z,0.90
2019-03-18T06:20:56.623Z,0.70
2019-03-18T06:23:44.350Z,0.90
2019-03-18T06:26:12.800Z,1.10
2019-03-18T06:28:41.251Z,0.80
2019-03-18T06:33:43.958Z,0.83
2019-03-18T06:36:31.598Z,1.50
2019-03-18T06:41:33.752Z,1.30
2019-03-18T06:44:02.211Z,0.87
2019-03-18T06:46:30.687Z,1.03
2019-03-18T06:48:59.135Z,1.33
2019-03-18T06:51:27.586Z,0.60
2019-03-18T06:53:56.076Z,0.83
2019-03-18T06:56:24.522Z,0.90
2019-03-18T06:58:52.967Z,1.30
2019-03-18T07:01:40.659Z,1.33
2019-03-18T07:04:28.306Z,0.53
2019-03-18T07:09:30.601Z,0.77
2019-03-18T07:11:59.050Z,0.40
2019-03-18T07:17:01.930Z,0.63
2019-03-18T07:22:23.634Z,0.70
2019-03-18T07:24:52.156Z,0.50
2019-03-18T07:27:20.588Z,0.57
2019-03-18T07:29:49.042Z,0.73
2019-03-18T07:32:17.556Z,0.90
2019-03-18T07:34:46.016Z,0.60
2019-03-18T07:37:14.454Z,0.67
2019-03-18T07:40:02.322Z,0.50
2019-03-18T07:42:30.773Z,0.60
2019-03-18T07:44:59.230Z,0.60
2019-03-18T07:50:01.948Z,0.50
2019-03-18T07:52:49.697Z,0.70
2019-03-18T07:55:18.146Z,0.80
2019-03-18T07:58:05.919Z,0.80
2019-03-18T08:00:53.793Z,1.07
2019-03-18T08:05:56.899Z,0.60
2019-03-18T08:10:59.457Z,0.70
2019-03-18T08:13:27.910Z,0.80
2019-03-18T08:16:15.525Z,0.67
2019-03-18T08:18:43.973Z,0.70
2019-03-18T08:21:31.650Z,1.47
2019-03-18T08:24:19.295Z,0.80
2019-03-18T08:26:47.782Z,0.60
2019-03-18T08:29:16.238Z,0.73
2019-03-18T08:31:44.689Z,0.60
2019-03-18T08:34:13.205Z,0.80
2019-03-18T08:36:41.678Z,0.80
2019-03-18T08:39:10.121Z,1.40
2019-03-18T08:41:58.005Z,0.70
2019-03-18T08:44:26.534Z,0.60
2019-03-18T08:46:54.983Z,0.50
2019-03-18T08:51:57.734Z,0.57
2019-03-18T08:54:26.184Z,0.50
2019-03-18T08:57:13.862Z,0.67
2019-03-18T08:59:42.310Z,0.90
2019-03-18T09:02:10.758Z,0.60
2019-03-18T09:04:39.318Z,0.80
2019-03-18T09:07:07.840Z,0.63
2019-03-18T09:09:36.376Z,0.90
2019-03-18T09:12:05.070Z,0.60
2019-03-18T09:14:33.509Z,0.70
2019-03-18T09:17:01.959Z,0.50
2019-03-18T09:19:30.607Z,0.67
2019-03-18T09:21:59.060Z,0.60
2019-03-18T09:24:27.576Z,0.83
2019-03-18T09:27:02.390Z,0.60
2019-03-18T09:29:26.442Z,0.60
2019-03-18T09:31:54.896Z,0.50
2019-03-18T09:34:23.402Z,0.80
2019-03-18T09:36:51.898Z,0.70
2019-03-18T09:39:20.347Z,0.53
2019-03-18T09:41:48.863Z,1.00
2019-03-18T09:44:17.319Z,0.60
2019-03-18T09:46:45.789Z,0.80
2019-03-18T09:49:21.442Z,0.63
2019-03-18T09:51:44.767Z,0.70
2019-03-18T09:54:13.481Z,0.60
2019-03-18T09:56:42.121Z,0.53
2019-03-18T09:59:10.578Z,0.50
2019-03-18T10:01:39.040Z,0.80
2019-03-18T10:04:07.523Z,0.80
2019-03-18T10:06:35.969Z,1.37
2019-03-18T10:09:06.703Z,0.60
2019-03-18T10:11:35.185Z,0.90
2019-03-18T10:14:03.632Z,0.60
2019-03-18T10:16:32.150Z,0.93
2019-03-18T10:19:00.667Z,0.83
2019-03-18T10:21:29.187Z,0.90
2019-03-18T10:23:57.643Z,0.90
2019-03-18T10:26:26.217Z,0.60
2019-03-18T10:28:54.670Z,1.20
2019-03-18T10:31:23.192Z,1.00
2019-03-18T10:33:51.713Z,0.60
2019-03-18T10:36:20.176Z,0.50
2019-03-18T10:38:48.629Z,0.50
2019-03-18T10:41:17.599Z,0.70
2019-03-18T10:43:46.113Z,0.40
2019-03-18T10:46:14.638Z,0.60
2019-03-18T10:48:43.142Z,1.30
2019-03-18T10:51:11.674Z,0.60
2019-03-18T10:53:40.156Z,0.83
2019-03-18T10:56:08.643Z,0.60
2019-03-18T10:58:37.066Z,0.60
2019-03-18T11:01:05.514Z,1.23
2019-03-18T11:03:34.070Z,1.20
2019-03-18T11:06:02.538Z,1.20
2019-03-18T11:08:31.016Z,0.80
2019-03-18T11:10:59.943Z,0.93
2019-03-18T11:13:28.392Z,1.10
2019-03-18T11:15:56.921Z,0.97
2019-03-18T11:18:25.479Z,1.60
2019-03-18T11:20:54.066Z,1.33
2019-03-18T11:23:22.609Z,1.03
2019-03-18T11:25:51.117Z,0.97
2019-03-18T11:28:19.569Z,1.00
2019-03-18T11:30:48.095Z,1.03
2019-03-18T11:33:16.586Z,0.97
2019-03-18T11:35:45.054Z,0.70
2019-03-18T11:38:13.515Z,0.97
2019-03-18T11:40:42.123Z,1.10
2019-03-18T11:43:10.583Z,1.03
2019-03-18T11:45:39.084Z,1.20
2019-03-18T11:48:07.646Z,0.67
2019-03-18T11:50:36.168Z,0.60
2019-03-18T11:53:13.878Z,1.10
2019-03-18T11:55:35.688Z,0.80
2019-03-18T11:58:04.265Z,0.83
2019-03-18T12:00:32.835Z,0.50
2019-03-18T12:03:01.390Z,0.50
2019-03-18T12:05:29.979Z,0.50
2019-03-18T12:07:58.436Z,0.40
2019-03-18T12:10:27.079Z,0.40
2019-03-18T12:12:55.637Z,0.60
2019-03-18T12:15:25.827Z,1.30
2019-03-18T12:17:54.552Z,0.50
2019-03-18T12:20:25.491Z,0.50
2019-03-18T12:22:53.177Z,0.60
2019-03-18T12:25:22.167Z,0.70
2019-03-18T12:27:50.713Z,0.30
2019-03-18T12:30:20.673Z,0.40
2019-03-18T12:32:49.229Z,0.57
2019-03-18T12:35:17.825Z,0.67
2019-03-18T12:37:46.337Z,0.50
2019-03-18T12:40:18.393Z,0.53
2019-03-18T12:42:46.916Z,0.30
2019-03-18T12:45:16.421Z,0.40
2019-03-18T12:47:44.964Z,0.37
2019-03-18T12:50:15.823Z,0.30
2019-03-18T12:52:44.347Z,0.30
2019-03-18T12:55:13.304Z,0.30
2019-03-18T12:57:41.864Z,0.37
2019-03-18T13:00:16.051Z,0.40
2019-03-18T13:02:44.546Z,0.40
2019-03-18T13:05:13.552Z,0.60
2019-03-18T13:07:42.175Z,0.40
2019-03-18T13:10:15.711Z,0.50
2019-03-18T13:12:44.170Z,0.37
2019-03-18T13:15:14.955Z,0.40
2019-03-18T13:17:44.099Z,0.40
2019-03-18T13:20:20.221Z,0.40
2019-03-18T13:22:48.776Z,0.40
2019-03-18T13:25:17.288Z,0.43
2019-03-18T13:27:45.884Z,0.47
2019-03-18T13:30:16.275Z,0.50
2019-03-18T13:32:44.792Z,0.50
2019-03-18T13:35:13.730Z,0.97
2019-03-18T13:37:42.301Z,0.50
2019-03-18T13:40:15.465Z,0.57
2019-03-18T13:42:43.916Z,0.30
2019-03-18T13:45:17.602Z,0.50
2019-03-18T13:47:46.150Z,0.40
2019-03-18T13:50:18.808Z,0.40
2019-03-18T13:52:47.288Z,0.30
2019-03-18T13:55:15.925Z,0.50
2019-03-18T13:57:44.560Z,0.67
2019-03-18T14:00:16.396Z,0.40
2019-03-18T14:02:44.983Z,0.50
2019-03-18T14:05:13.586Z,0.70
2019-03-18T14:07:43.302Z,0.40
2019-03-18T14:10:23.347Z,0.50
2019-03-18T14:12:51.899Z,0.50
2019-03-18T14:15:22.570Z,0.60
2019-03-18T14:17:51.158Z,0.50
2019-03-18T14:20:22.699Z,0.40
2019-03-18T14:22:51.305Z,0.63
2019-03-18T14:25:19.822Z,0.50
2019-03-18T14:27:48.377Z,0.50
2019-03-18T14:30:23.744Z,0.50
2019-03-18T14:32:52.188Z,0.80
2019-03-18T14:35:22.180Z,0.40
2019-03-18T14:37:50.767Z,0.40
2019-03-18T14:40:25.789Z,0.50
2019-03-18T14:42:54.310Z,0.37
2019-03-18T14:45:23.599Z,0.37
2019-03-18T14:47:52.328Z,0.60
2019-03-18T14:50:21.221Z,0.40
2019-03-18T14:52:49.740Z,0.40
2019-03-18T14:55:18.969Z,0.47
2019-03-18T14:57:47.794Z,0.73
2019-03-18T15:00:26.923Z,0.40
2019-03-18T15:02:55.522Z,0.50
2019-03-18T15:05:23.970Z,0.40
2019-03-18T15:08:11.858Z,0.70
2019-03-18T15:10:40.308Z,0.40
2019-03-18T15:13:08.751Z,0.57
2019-03-18T15:18:10.902Z,0.40
2019-03-18T15:20:39.355Z,0.70
2019-03-18T15:23:27.231Z,0.40
2019-03-18T15:25:55.738Z,0.40
2019-03-18T15:28:24.192Z,0.60
2019-03-18T15:33:45.901Z,0.80
2019-03-18T15:38:48.734Z,0.50
2019-03-18T15:41:17.185Z,0.80
2019-03-18T15:46:20.045Z,0.57
2019-03-18T15:48:48.538Z,0.77
2019-03-18T15:51:16.995Z,0.53
2019-03-18T15:53:45.445Z,0.60
2019-03-18T15:56:13.933Z,0.40
2019-03-18T15:58:42.386Z,0.40
2019-03-18T16:01:10.845Z,0.50
2019-03-18T16:06:13.317Z,0.70
2019-03-18T16:08:41.770Z,0.40
2019-03-18T16:11:29.442Z,0.60
2019-03-18T16:13:57.900Z,0.40
2019-03-18T16:16:26.352Z,0.50
2019-03-18T16:18:54.834Z,0.50
2019-03-18T16:21:23.289Z,0.70
2019-03-18T16:23:51.739Z,0.40
2019-03-18T16:28:53.995Z,0.60
2019-03-18T16:31:22.531Z,0.70
2019-03-18T16:36:25.131Z,0.40
2019-03-18T16:38:53.651Z,0.73
2019-03-18T16:41:22.142Z,1.07
2019-03-18T16:43:50.602Z,0.70
2019-03-18T16:46:19.049Z,0.50
2019-03-18T16:51:21.522Z,0.50
2019-03-18T16:53:50.035Z,0.50
2019-03-18T16:56:18.478Z,0.40
2019-03-18T16:58:46.935Z,0.50
2019-03-18T17:01:15.414Z,0.60
2019-03-18T17:04:03.060Z,0.90
2019-03-18T17:06:31.562Z,0.67
2019-03-18T17:09:00.017Z,0.40
2019-03-18T17:11:28.472Z,0.50
2019-03-18T17:14:16.281Z,1.20
2019-03-18T17:16:44.730Z,0.70
2019-03-18T17:19:13.177Z,0.57
2019-03-18T17:24:16.086Z,1.13
2019-03-18T17:26:44.570Z,0.97
2019-03-18T17:29:13.027Z,0.90
2019-03-18T17:34:35.429Z,0.93
2019-03-18T17:37:23.110Z,0.80
2019-03-18T17:39:51.564Z,0.80
2019-03-18T17:42:20.018Z,0.40
2019-03-18T17:44:48.505Z,1.27
2019-03-18T17:47:36.146Z,0.90
2019-03-18T17:50:44.568Z,0.70
2019-03-18T17:53:13.085Z,0.70
2019-03-18T17:56:00.850Z,0.70
2019-03-18T17:58:29.301Z,0.50
2019-03-18T18:03:46.875Z,0.93
2019-03-18T18:06:15.343Z,0.80
2019-03-18T18:11:39.210Z,0.60
2019-03-18T18:14:07.657Z,0.60
2019-03-18T18:16:36.104Z,0.60
2019-03-18T18:21:57.318Z,1.70
2019-03-18T18:24:25.765Z,1.33
2019-03-18T18:26:54.212Z,2.20
2019-03-18T18:29:41.944Z,0.93
2019-03-18T18:32:10.388Z,0.60
2019-03-18T18:34:38.838Z,0.90
2019-03-18T18:37:26.643Z,1.10
2019-03-18T18:39:55.092Z,0.80
2019-03-18T18:42:23.541Z,0.80
2019-03-18T18:47:25.791Z,0.80
2019-03-18T18:49:54.252Z,1.10
2019-03-18T18:57:49.886Z,1.00
2019-03-18T19:00:58.259Z,0.60
2019-03-18T19:06:00.582Z,1.43
2019-03-18T19:08:29.024Z,0.87
2019-03-18T19:13:31.715Z,0.80
2019-03-18T19:16:00.201Z,0.70
2019-03-18T19:18:47.841Z,0.80
2019-03-18T19:21:16.360Z,0.90
2019-03-18T19:23:44.806Z,1.33
2019-03-18T19:26:13.252Z,1.00
2019-03-18T19:28:41.742Z,0.80
2019-03-18T19:31:10.188Z,0.90
2019-03-18T19:33:38.644Z,2.50
2019-03-18T19:36:26.469Z,1.90
2019-03-18T19:38:54.921Z,2.53
2019-03-18T19:41:23.370Z,2.97
2019-03-18T19:43:51.853Z,2.80
2019-03-18T19:46:20.302Z,2.40
2019-03-18T19:48:48.748Z,2.30
2019-03-18T19:51:36.755Z,1.70
2019-03-18T19:54:05.347Z,1.03
2019-03-18T19:56:33.803Z,2.07
2019-03-18T19:59:02.284Z,2.40
2019-03-18T20:01:30.739Z,1.53
2019-03-18T20:03:59.193Z,2.03
2019-03-18T20:06:27.672Z,1.50
2019-03-18T20:08:56.131Z,1.40
2019-03-18T20:11:43.874Z,1.10
2019-03-18T20:14:32.745Z,1.40
2019-03-18T20:19:35.638Z,3.03
2019-03-18T20:22:04.085Z,1.07
2019-03-18T20:27:06.581Z,13.47
2019-03-18T20:32:09.166Z,0.93
2019-03-18T20:34:37.643Z,1.13
2019-03-18T20:37:06.093Z,1.73
2019-03-18T20:39:34.541Z,1.60
2019-03-18T20:42:03.021Z,1.73
2019-03-18T20:44:31.468Z,1.83
2019-03-18T20:46:59.919Z,2.10
2019-03-18T20:49:28.435Z,1.07
2019-03-18T20:51:56.899Z,1.07
2019-03-18T20:54:25.350Z,1.77
2019-03-18T20:59:27.636Z,1.90
2019-03-18T21:02:15.507Z,1.70
2019-03-18T21:04:43.957Z,1.60
2019-03-18T21:07:12.404Z,1.70
2019-03-18T21:12:33.852Z,2.80
2019-03-18T21:15:21.467Z,4.03
2019-03-18T21:18:09.251Z,3.63
2019-03-18T21:23:30.674Z,5.00
2019-03-18T21:25:59.166Z,4.83
2019-03-18T21:28:27.622Z,4.60
2019-03-18T21:30:56.062Z,4.17
2019-03-18T21:33:24.547Z,4.03
2019-03-18T21:35:55.658Z,3.73
2019-03-18T21:38:23.163Z,4.27
2019-03-18T21:40:51.676Z,3.40
2019-03-18T21:46:27.182Z,3.03
2019-03-18T21:48:55.634Z,3.33
2019-03-18T21:51:24.080Z,4.03
2019-03-18T21:56:45.385Z,2.70
2019-03-18T21:59:13.900Z,2.20
2019-03-18T22:01:42.352Z,2.50
2019-03-18T22:04:29.956Z,1.77
2019-03-18T22:06:58.405Z,1.60
2019-03-18T22:09:26.859Z,2.67
2019-03-18T22:14:29.694Z,2.73
2019-03-18T22:16:58.173Z,3.60
2019-03-18T22:19:26.625Z,4.00
2019-03-18T22:21:55.073Z,3.50
2019-03-18T22:24:23.564Z,4.00
2019-03-18T22:27:11.208Z,3.90
2019-03-18T22:29:39.708Z,4.00
2019-03-18T22:32:08.157Z,3.50
2019-03-18T22:34:56.031Z,3.60
2019-03-18T22:37:24.477Z,3.30
2019-03-18T22:39:52.926Z,3.70
2019-03-18T22:42:21.415Z,3.50
2019-03-18T22:44:49.866Z,3.00
2019-03-18T22:47:18.316Z,3.40
2019-03-18T22:50:06.321Z,3.17
2019-03-18T22:52:34.834Z,3.20
2019-03-18T22:55:43.310Z,3.10
2019-03-18T22:58:11.762Z,2.33
2019-03-18T23:00:59.375Z,3.50
2019-03-18T23:03:27.832Z,3.70
2019-03-18T23:05:56.284Z,3.47
2019-03-18T23:08:43.890Z,3.73
2019-03-18T23:17:10.117Z,2.63
2019-03-18T23:19:38.572Z,3.50
2019-03-18T23:22:07.081Z,4.30
2019-03-18T23:24:35.538Z,2.60
2019-03-18T23:27:03.978Z,3.63
2019-03-18T23:29:32.467Z,3.67
2019-03-18T23:32:20.225Z,3.70
2019-03-18T23:34:48.704Z,2.93
2019-03-18T23:37:17.154Z,3.20
2019-03-18T23:39:45.602Z,2.83
2019-03-18T23:44:48.357Z,2.10
2019-03-18T23:47:16.842Z,2.90
2019-03-18T23:49:47.502Z,2.80
2019-03-18T23:52:34.688Z,4.07
2019-03-18T23:58:11.225Z,3.70
